Time;durP1;ratioP1;P1;durP2;ratioP2;P2;SDS_P1;SDS_P2;PMS_P1;PMS_P2;Temp;Humidity;BMP_temperature;BMP_pressure;BME280_temperature;BME280_humidity;BME280_pressure;Samples;Min_cycle;Max_cycle;Signal;HPM_P1;HPM_P2
2022/06/09 00:01:01;;;;;;;10.57;9.30;;;13.50;99.90;;;;;;5095952;28;20204;-83
2022/06/09 00:03:33;;;;;;;10.97;9.57;;;13.50;99.90;;;;;;5095653;28;20589;-83
2022/06/09 00:06:00;;;;;;;12.77;10.00;;;13.40;99.90;;;;;;5096086;28;20602;-83
2022/06/09 00:08:31;;;;;;;10.40;9.40;;;13.40;99.90;;;;;;5096435;28;20701;-83
2022/06/09 00:11:01;;;;;;;10.47;8.87;;;13.40;99.90;;;;;;5096651;28;20670;-83
2022/06/09 00:13:28;;;;;;;10.17;9.17;;;13.40;99.90;;;;;;5105501;28;20226;-84
2022/06/09 00:15:55;;;;;;;10.47;9.40;;;13.40;99.90;;;;;;5096860;28;20499;-83
2022/06/09 00:18:22;;;;;;;10.43;9.27;;;13.30;99.90;;;;;;5114865;28;20220;-84
2022/06/09 00:20:51;;;;;;;12.17;9.87;;;13.30;99.90;;;;;;5113185;28;20193;-83
2022/06/09 00:23:18;;;;;;;10.30;9.20;;;13.30;99.90;;;;;;5114342;28;20202;-83
2022/06/09 00:25:45;;;;;;;10.67;9.40;;;13.30;99.90;;;;;;5108857;28;20208;-83
2022/06/09 00:28:12;;;;;;;11.53;10.40;;;13.30;99.90;;;;;;5096272;28;20192;-83
2022/06/09 00:30:39;;;;;;;13.23;9.80;;;13.40;99.90;;;;;;5095356;28;20554;-83
2022/06/09 00:33:06;;;;;;;10.80;9.73;;;13.40;99.90;;;;;;5095383;28;20203;-84
2022/06/09 00:35:33;;;;;;;10.87;9.80;;;13.30;99.90;;;;;;5079797;28;20200;-84
2022/06/09 00:38:01;;;;;;;13.20;9.90;;;13.20;99.90;;;;;;5095146;28;20212;-83
2022/06/09 00:40:28;;;;;;;11.40;10.20;;;13.20;99.90;;;;;;5094891;28;20196;-84
2022/06/09 00:42:55;;;;;;;11.07;9.97;;;13.20;99.90;;;;;;5094749;28;20204;-84
2022/06/09 00:45:26;;;;;;;12.50;10.03;;;13.10;99.90;;;;;;5094598;28;20204;-84
2022/06/09 00:47:58;;;;;;;10.90;9.77;;;13.10;99.90;;;;;;5094622;28;20228;-84
2022/06/09 00:50:28;;;;;;;10.83;9.73;;;13.10;99.90;;;;;;5094741;28;20604;-84
2022/06/09 00:52:59;;;;;;;11.40;10.03;;;13.20;99.90;;;;;;5076774;28;20291;-84
2022/06/09 00:55:31;;;;;;;10.60;9.50;;;13.20;99.90;;;;;;5094811;28;20196;-84
2022/06/09 00:58:03;;;;;;;11.23;9.73;;;13.10;99.90;;;;;;5094551;28;20281;-85
2022/06/09 01:00:47;;;;;;;13.17;10.07;;;13.00;99.90;;;;;;5094677;28;20192;-85
2022/06/09 01:03:16;;;;;;;11.43;10.23;;;13.00;99.90;;;;;;5079292;28;20200;-85
2022/06/09 01:05:44;;;;;;;11.50;9.77;;;13.00;99.90;;;;;;5095214;28;20254;-85
2022/06/09 01:08:13;;;;;;;12.47;9.97;;;13.00;99.90;;;;;;5095599;28;20204;-85
2022/06/09 01:10:41;;;;;;;11.40;9.77;;;13.00;99.90;;;;;;5094913;28;20616;-85
2022/06/09 01:13:09;;;;;;;12.90;10.87;;;12.90;99.90;;;;;;5094798;28;20703;-85
2022/06/09 01:15:45;;;;;;;11.53;10.43;;;12.90;99.90;;;;;;5094966;28;20224;-86
2022/06/09 01:18:24;;;;;;;11.97;9.97;;;12.90;99.90;;;;;;5095167;28;20227;-86
2022/06/09 01:20:59;;;;;;;12.57;10.37;;;12.90;99.90;;;;;;5095403;28;20310;-86
2022/06/09 01:24:02;;;;;;;11.47;10.30;;;12.90;99.90;;;;;;5088374;28;20255;-86
2022/06/09 01:27:04;;;;;;;12.17;10.87;;;12.90;99.90;;;;;;5095351;28;20199;-86
2022/06/09 01:29:38;;;;;;;11.73;10.47;;;12.80;99.90;;;;;;5095626;28;20408;-86
2022/06/09 01:32:11;;;;;;;12.13;10.83;;;12.90;99.90;;;;;;5095475;28;20207;-87
2022/06/09 01:34:44;;;;;;;11.73;10.30;;;12.90;99.90;;;;;;5095251;28;20204;-87
2022/06/09 01:37:17;;;;;;;11.77;10.57;;;12.90;99.90;;;;;;5094965;28;20192;-87
2022/06/09 01:39:47;;;;;;;12.93;10.40;;;12.90;99.90;;;;;;5095171;28;20220;-87
2022/06/09 01:42:30;;;;;;;12.57;11.27;;;12.90;99.90;;;;;;5095315;28;20196;-86
2022/06/09 01:45:00;;;;;;;12.40;11.20;;;12.90;99.90;;;;;;5095603;28;20675;-86
2022/06/09 01:47:37;;;;;;;11.90;10.70;;;12.90;99.90;;;;;;5095035;28;20224;-87
2022/06/09 01:50:08;;;;;;;14.00;11.40;;;12.90;99.90;;;;;;5095611;28;20196;-89
2022/06/09 01:52:37;;;;;;;11.87;10.77;;;13.00;99.90;;;;;;5076522;28;20226;-87
2022/06/09 01:55:07;;;;;;;13.33;11.93;;;13.00;99.90;;;;;;5096025;28;20201;-87
2022/06/09 01:57:37;;;;;;;14.70;12.03;;;13.00;99.90;;;;;;5095483;28;20201;-86
2022/06/09 02:00:08;;;;;;;13.13;11.77;;;13.00;99.90;;;;;;5095293;28;20697;-87
2022/06/09 02:02:40;;;;;;;12.60;11.40;;;12.90;99.90;;;;;;5094245;28;20209;-87
2022/06/09 02:05:10;;;;;;;13.00;11.70;;;12.90;99.90;;;;;;5095049;28;20283;-86
2022/06/09 02:07:39;;;;;;;14.17;12.67;;;12.90;99.90;;;;;;5095860;28;20196;-87
2022/06/09 02:10:20;;;;;;;15.70;12.10;;;12.90;99.90;;;;;;5095465;28;20226;-86
2022/06/09 02:12:48;;;;;;;16.10;12.87;;;12.90;99.90;;;;;;5095588;28;20636;-87
2022/06/09 02:15:22;;;;;;;15.70;13.03;;;12.90;99.90;;;;;;5095245;28;20640;-87
2022/06/09 02:17:52;;;;;;;13.73;12.43;;;12.90;99.90;;;;;;5095319;28;20215;-86
2022/06/09 02:20:21;;;;;;;17.10;14.23;;;12.90;99.90;;;;;;5094917;28;20287;-87
2022/06/09 02:22:48;;;;;;;17.07;14.73;;;12.90;99.90;;;;;;5095665;28;20197;-87
2022/06/09 02:25:15;;;;;;;17.37;15.40;;;12.90;99.90;;;;;;5096491;28;20203;-87
2022/06/09 02:27:42;;;;;;;16.83;15.13;;;12.90;99.90;;;;;;5081595;28;20283;-87
2022/06/09 02:30:10;;;;;;;17.23;15.43;;;13.00;99.90;;;;;;5098848;28;20227;-85
2022/06/09 02:32:37;;;;;;;17.77;15.87;;;13.10;99.90;;;;;;5099430;28;20200;-87
2022/06/09 02:35:07;;;;;;;18.10;16.20;;;13.00;99.90;;;;;;5099333;28;20223;-87
2022/06/09 02:37:33;;;;;;;19.57;17.57;;;13.00;99.90;;;;;;5102920;28;20634;-87
2022/06/09 02:40:00;;;;;;;18.07;16.13;;;13.00;99.90;;;;;;5081146;28;20275;-87
2022/06/09 02:42:27;;;;;;;18.03;16.10;;;13.10;99.90;;;;;;5098572;28;20249;-87
2022/06/09 02:44:54;;;;;;;19.67;16.73;;;13.10;99.90;;;;;;5098929;28;20204;-87
2022/06/09 02:47:21;;;;;;;19.20;17.23;;;13.10;99.90;;;;;;5098734;28;20224;-87
2022/06/09 02:49:48;;;;;;;19.03;17.03;;;13.10;99.90;;;;;;5098885;28;20200;-86
2022/06/09 02:52:16;;;;;;;21.57;16.97;;;13.10;99.90;;;;;;5100917;28;20222;-87
2022/06/09 02:54:43;;;;;;;20.40;17.30;;;13.10;99.90;;;;;;5095718;28;20196;-87
2022/06/09 02:57:09;;;;;;;21.20;17.77;;;13.10;99.90;;;;;;5112482;28;20195;-87
2022/06/09 02:59:36;;;;;;;20.00;17.90;;;13.10;99.90;;;;;;5099652;28;20277;-86
2022/06/09 03:02:03;;;;;;;21.10;18.53;;;13.10;99.90;;;;;;5099472;28;20227;-86
2022/06/09 03:04:30;;;;;;;19.90;17.87;;;13.10;99.90;;;;;;5098593;28;20265;-88
2022/06/09 03:06:57;;;;;;;22.10;18.93;;;13.10;99.90;;;;;;5098830;28;20196;-86
2022/06/09 03:09:25;;;;;;;20.20;18.10;;;13.10;99.90;;;;;;5099534;28;20204;-89
2022/06/09 03:11:52;;;;;;;19.97;17.70;;;13.10;99.90;;;;;;5099876;28;20200;-88
2022/06/09 03:14:19;;;;;;;22.33;19.97;;;13.10;99.90;;;;;;5098913;28;20246;-88
2022/06/09 03:16:46;;;;;;;21.27;18.97;;;13.10;99.90;;;;;;5081469;28;20204;-89
2022/06/09 03:19:13;;;;;;;22.53;20.13;;;13.10;99.90;;;;;;5100765;28;20224;-88
2022/06/09 03:21:40;;;;;;;25.00;20.90;;;13.10;99.90;;;;;;5101289;28;20212;-89
2022/06/09 03:24:07;;;;;;;23.63;20.83;;;13.10;99.90;;;;;;5109599;28;20204;-89
2022/06/09 03:26:38;;;;;;;22.80;20.30;;;13.10;99.90;;;;;;5091541;28;20252;-88
2022/06/09 03:29:05;;;;;;;23.03;20.63;;;13.10;99.90;;;;;;5101074;28;20184;-89
2022/06/09 03:31:32;;;;;;;27.17;21.73;;;13.10;99.90;;;;;;5118948;28;20617;-89
2022/06/09 03:33:59;;;;;;;25.10;20.10;;;13.10;99.90;;;;;;5120602;28;20211;-88
2022/06/09 03:36:26;;;;;;;26.27;21.30;;;13.20;99.90;;;;;;5119409;28;20180;-88
2022/06/09 03:38:53;;;;;;;26.07;20.50;;;13.20;99.90;;;;;;5120635;28;20206;-86
2022/06/09 03:41:20;;;;;;;23.73;19.60;;;13.20;99.90;;;;;;5115489;28;20197;-89
2022/06/09 03:43:48;;;;;;;21.00;18.80;;;13.20;99.90;;;;;;5102216;28;20580;-89
2022/06/09 03:46:15;;;;;;;22.30;19.90;;;13.20;99.90;;;;;;5104654;28;20203;-89
2022/06/09 03:48:43;;;;;;;22.13;19.77;;;13.20;99.90;;;;;;5085523;28;20251;-87
2022/06/09 03:51:11;;;;;;;23.30;19.50;;;13.30;99.90;;;;;;5109958;28;20200;-89
2022/06/09 03:53:39;;;;;;;21.20;18.90;;;13.30;99.90;;;;;;5102041;28;20558;-89
2022/06/09 03:56:07;;;;;;;20.83;18.67;;;13.30;99.90;;;;;;5109442;28;20188;-88
2022/06/09 03:58:34;;;;;;;20.77;18.53;;;13.30;99.90;;;;;;5119932;28;20208;-89
2022/06/09 04:01:02;;;;;;;20.40;18.30;;;13.40;99.90;;;;;;5120198;28;20176;-87
2022/06/09 04:03:30;;;;;;;21.87;18.73;;;13.40;99.90;;;;;;5099060;28;20196;-89
2022/06/09 04:05:57;;;;;;;20.17;18.03;;;13.40;99.90;;;;;;5107716;28;20246;-89
2022/06/09 04:08:24;;;;;;;22.13;18.53;;;13.40;99.90;;;;;;5100454;28;20231;-89
2022/06/09 04:10:52;;;;;;;19.43;17.63;;;13.50;99.90;;;;;;5099109;28;20204;-89
2022/06/09 04:13:19;;;;;;;17.90;16.17;;;13.50;99.90;;;;;;5114370;28;20195;-87
2022/06/09 04:15:47;;;;;;;17.93;16.13;;;13.60;99.90;;;;;;5120111;28;20184;-88
2022/06/09 04:18:15;;;;;;;19.63;16.17;;;13.60;99.90;;;;;;5102557;28;20192;-88
2022/06/09 04:20:42;;;;;;;21.63;17.23;;;13.60;99.90;;;;;;5104886;28;20219;-88
2022/06/09 04:23:09;;;;;;;17.17;15.37;;;13.70;99.90;;;;;;5099416;28;20203;-89
2022/06/09 04:25:36;;;;;;;18.10;15.57;;;13.70;99.90;;;;;;5097394;28;20230;-87
2022/06/09 04:28:03;;;;;;;17.00;15.43;;;13.80;99.90;;;;;;5097716;28;20196;-86
2022/06/09 04:30:30;;;;;;;15.83;14.13;;;13.80;99.90;;;;;;5079371;28;20295;-86
2022/06/09 04:32:58;;;;;;;14.57;13.17;;;13.90;99.90;;;;;;5097208;28;20214;-85
2022/06/09 04:35:27;;;;;;;14.23;12.83;;;13.90;99.90;;;;;;5095895;28;20292;-85
2022/06/09 04:38:03;;;;;;;14.40;13.00;;;13.90;99.90;;;;;;5095625;28;20200;-85
2022/06/09 04:40:33;;;;;;;14.87;12.80;;;13.90;99.90;;;;;;5097138;28;20224;-84
2022/06/09 04:43:00;;;;;;;15.43;12.37;;;13.90;99.90;;;;;;5096284;28;20287;-84
2022/06/09 04:45:27;;;;;;;14.47;12.13;;;14.00;99.90;;;;;;5095717;28;20533;-85
2022/06/09 04:47:54;;;;;;;13.70;12.23;;;14.10;99.90;;;;;;5094565;28;20221;-84
2022/06/09 04:50:21;;;;;;;14.03;11.27;;;14.10;99.90;;;;;;5077165;28;20253;-84
2022/06/09 04:52:50;;;;;;;13.07;11.77;;;14.20;99.90;;;;;;5095494;28;20206;-84
2022/06/09 04:55:17;;;;;;;14.53;11.07;;;14.00;99.90;;;;;;5095760;28;20204;-83
2022/06/09 04:57:44;;;;;;;11.87;10.33;;;14.10;99.90;;;;;;5095230;28;20586;-82
2022/06/09 05:00:13;;;;;;;10.97;9.70;;;14.10;99.90;;;;;;5094458;28;20216;-83
2022/06/09 05:02:40;;;;;;;10.40;9.40;;;14.20;99.90;;;;;;5094525;28;20204;-83
2022/06/09 05:05:10;;;;;;;9.53;8.03;;;14.30;99.90;;;;;;5094655;28;20671;-82
2022/06/09 05:07:37;;;;;;;11.53;8.43;;;14.40;99.90;;;;;;5095145;28;20203;-82
2022/06/09 05:10:06;;;;;;;8.40;7.50;;;14.50;99.90;;;;;;5109848;28;20202;-81
2022/06/09 05:12:33;;;;;;;8.87;7.17;;;14.50;99.90;;;;;;5106647;28;20189;-81
2022/06/09 05:14:59;;;;;;;9.00;7.80;;;14.40;99.90;;;;;;5094940;28;20254;-81
2022/06/09 05:17:26;;;;;;;10.53;7.30;;;14.40;99.90;;;;;;5094159;28;20204;-80
2022/06/09 05:19:53;;;;;;;10.50;7.30;;;14.40;99.90;;;;;;5093749;28;20266;-81
2022/06/09 05:22:20;;;;;;;11.40;7.37;;;14.50;99.90;;;;;;5093188;28;20253;-80
2022/06/09 05:24:46;;;;;;;8.97;6.93;;;14.50;99.90;;;;;;5093406;28;20199;-79
2022/06/09 05:27:14;;;;;;;8.77;6.50;;;14.60;99.90;;;;;;5093330;28;20200;-79
2022/06/09 05:29:41;;;;;;;11.87;7.30;;;14.70;99.90;;;;;;5093085;28;20197;-79
2022/06/09 05:32:09;;;;;;;8.03;5.93;;;14.80;99.90;;;;;;5092883;28;20204;-80
2022/06/09 05:34:36;;;;;;;7.17;6.30;;;14.70;99.90;;;;;;5093129;28;20196;-79
2022/06/09 05:37:03;;;;;;;11.83;6.57;;;14.60;99.90;;;;;;5092818;28;20685;-79
2022/06/09 05:45:10;;;;;;;6.97;5.40;;;14.80;99.90;;;;;;5056545;28;20204;-78
2022/06/09 05:47:38;;;;;;;9.57;5.33;;;14.80;99.90;;;;;;5092895;28;20299;-78
2022/06/09 05:50:06;;;;;;;9.03;5.47;;;15.00;99.90;;;;;;5093043;28;20243;-79
2022/06/09 05:52:33;;;;;;;6.90;4.63;;;15.10;99.90;;;;;;5093108;28;20245;-78
2022/06/09 05:55:00;;;;;;;7.73;4.80;;;15.10;99.90;;;;;;5092858;28;20204;-78
2022/06/09 05:57:28;;;;;;;4.57;4.10;;;15.20;99.90;;;;;;5093704;28;20640;-78
2022/06/09 05:59:55;;;;;;;7.43;4.67;;;15.30;99.90;;;;;;5093663;28;20695;-79
2022/06/09 06:02:26;;;;;;;8.73;4.93;;;15.40;99.90;;;;;;5097643;28;20257;-78
2022/06/09 06:04:55;;;;;;;8.33;4.43;;;15.40;99.90;;;;;;5097688;28;20257;-82
2022/06/09 06:07:22;;;;;;;5.73;3.90;;;15.40;99.90;;;;;;5097152;28;20196;-79
2022/06/09 06:09:48;;;;;;;4.53;4.13;;;15.30;99.90;;;;;;5098157;28;20191;-82
2022/06/09 06:12:15;;;;;;;8.20;4.37;;;15.30;99.90;;;;;;5096896;28;20192;-81
2022/06/09 06:14:43;;;;;;;9.27;3.90;;;15.30;99.90;;;;;;5096988;28;20242;-80
2022/06/09 06:17:10;;;;;;;6.20;3.90;;;15.60;99.90;;;;;;5096750;28;20655;-79
2022/06/09 06:19:36;;;;;;;11.17;4.40;;;15.40;99.90;;;;;;5097200;28;20217;-78
2022/06/09 06:22:03;;;;;;;6.83;4.37;;;15.40;99.90;;;;;;5098048;28;20196;-81
2022/06/09 06:24:31;;;;;;;6.10;3.87;;;15.50;99.90;;;;;;5097832;28;20200;-79
2022/06/09 06:26:57;;;;;;;5.20;4.03;;;15.40;99.90;;;;;;5097312;28;20655;-81
2022/06/09 06:29:27;;;;;;;8.90;4.10;;;15.50;99.90;;;;;;5097246;28;20208;-80
2022/06/09 06:31:55;;;;;;;6.70;4.00;;;15.50;99.90;;;;;;5097213;28;20329;-79
2022/06/09 06:34:22;;;;;;;4.47;4.00;;;15.40;99.90;;;;;;5096494;28;20196;-76
2022/06/09 06:36:49;;;;;;;6.73;3.97;;;15.30;99.90;;;;;;5096563;28;20208;-77
2022/06/09 06:39:15;;;;;;;4.27;3.70;;;15.20;99.90;;;;;;5096313;28;20288;-78
2022/06/09 06:41:42;;;;;;;6.90;3.80;;;15.30;99.90;;;;;;5096344;28;20266;-79
2022/06/09 06:44:09;;;;;;;5.50;3.60;;;15.70;99.90;;;;;;5096812;28;20265;-80
2022/06/09 06:46:36;;;;;;;7.40;3.50;;;15.90;99.90;;;;;;5097016;28;20196;-77
2022/06/09 06:49:04;;;;;;;4.70;2.97;;;15.90;99.90;;;;;;5098060;28;20235;-76
2022/06/09 06:51:31;;;;;;;5.53;3.20;;;15.80;99.90;;;;;;5096465;28;20295;-77
2022/06/09 06:53:58;;;;;;;6.83;2.97;;;16.00;99.90;;;;;;5096389;28;20226;-77
2022/06/09 06:56:25;;;;;;;5.87;3.30;;;16.10;99.90;;;;;;5096295;28;20200;-77
2022/06/09 06:58:51;;;;;;;5.67;3.40;;;15.80;99.90;;;;;;5095907;28;20200;-78
2022/06/09 07:01:18;;;;;;;7.50;4.10;;;15.30;99.90;;;;;;5095645;28;20744;-77
2022/06/09 07:03:45;;;;;;;6.57;4.10;;;15.30;99.90;;;;;;5095782;28;20200;-76
2022/06/09 07:06:13;;;;;;;6.40;3.43;;;15.40;99.90;;;;;;5095972;28;20200;-77
2022/06/09 07:08:40;;;;;;;7.90;3.27;;;15.50;99.90;;;;;;5095538;28;20196;-77
2022/06/09 07:11:08;;;;;;;4.87;3.20;;;15.40;99.90;;;;;;5095294;28;20223;-76
2022/06/09 07:13:37;;;;;;;7.67;3.30;;;15.60;99.90;;;;;;5095940;28;20246;-77
2022/06/09 07:16:04;;;;;;;4.90;3.60;;;15.80;99.90;;;;;;5096272;28;20197;-76
2022/06/09 07:18:32;;;;;;;4.33;3.00;;;15.90;99.90;;;;;;5095464;28;20245;-76
2022/06/09 07:20:59;;;;;;;4.27;2.47;;;16.30;99.90;;;;;;5095179;28;20559;-76
2022/06/09 07:23:29;;;;;;;5.10;2.33;;;16.40;99.90;;;;;;5095500;28;20200;-76
2022/06/09 07:25:57;;;;;;;7.28;2.47;;;16.50;99.90;;;;;;5095450;28;20206;-75
2022/06/09 07:28:25;;;;;;;9.55;2.90;;;16.40;99.90;;;;;;5095158;28;20201;-75
2022/06/09 07:30:55;;;;;;;3.15;2.33;;;16.70;99.90;;;;;;5095284;28;20214;-75
2022/06/09 07:33:22;;;;;;;4.20;2.58;;;16.70;99.90;;;;;;5095150;28;20219;-76
2022/06/09 07:35:51;;;;;;;4.33;2.53;;;16.50;99.90;;;;;;5095269;28;20606;-76
2022/06/09 07:38:19;;;;;;;4.55;2.20;;;16.60;99.90;;;;;;5095267;28;20204;-75
2022/06/09 07:40:47;;;;;;;5.85;2.58;;;16.90;99.90;;;;;;5095021;28;20285;-76
2022/06/09 07:43:14;;;;;;;3.10;2.17;;;16.80;99.90;;;;;;5094925;28;20200;-75
2022/06/09 07:45:42;;;;;;;4.57;2.80;;;17.10;99.90;;;;;;5094860;28;20208;-75
2022/06/09 07:48:10;;;;;;;3.83;2.30;;;17.60;99.90;;;;;;5094597;28;20269;-77
2022/06/09 07:50:37;;;;;;;4.57;2.60;;;18.00;99.90;;;;;;5094936;28;20197;-76
2022/06/09 07:53:04;;;;;;;4.07;2.25;;;17.90;99.90;;;;;;5094834;28;20223;-75
2022/06/09 07:55:31;;;;;;;6.35;2.40;;;17.80;99.90;;;;;;5094761;28;20200;-76
2022/06/09 07:58:00;;;;;;;6.47;2.20;;;17.70;99.90;;;;;;5094730;28;20226;-75
2022/06/09 08:00:27;;;;;;;7.03;2.80;;;17.70;99.90;;;;;;5094509;28;20220;-76
2022/06/09 08:02:54;;;;;;;4.63;2.80;;;17.50;99.90;;;;;;5094434;28;20253;-77
2022/06/09 08:05:23;;;;;;;5.22;3.20;;;17.00;99.90;;;;;;5094664;28;20200;-76
2022/06/09 08:07:50;;;;;;;5.55;3.30;;;16.70;99.90;;;;;;5094559;28;20257;-76
2022/06/09 08:10:20;;;;;;;4.25;2.70;;;17.10;99.90;;;;;;5094499;28;20256;-77
2022/06/09 08:12:48;;;;;;;6.18;2.53;;;17.30;99.90;;;;;;5094236;28;20533;-76
2022/06/09 08:15:17;;;;;;;4.47;2.20;;;17.70;99.90;;;;;;5094119;28;20204;-76
2022/06/09 08:17:44;;;;;;;3.95;2.45;;;17.70;99.90;;;;;;5094520;28;20196;-76
2022/06/09 08:20:12;;;;;;;3.53;2.33;;;17.90;99.90;;;;;;5093995;28;20752;-74
2022/06/09 08:22:41;;;;;;;6.22;2.97;;;18.30;99.90;;;;;;5093444;28;20540;-76
2022/06/09 08:25:09;;;;;;;4.13;2.63;;;18.40;99.90;;;;;;5094225;28;20203;-75
2022/06/09 08:27:36;;;;;;;4.85;3.30;;;18.30;99.90;;;;;;5094170;28;20203;-76
2022/06/09 08:30:04;;;;;;;6.10;3.30;;;17.70;99.90;;;;;;5094197;28;20245;-76
2022/06/09 08:32:32;;;;;;;6.40;3.30;;;17.20;99.90;;;;;;5093843;28;20660;-76
2022/06/09 08:34:59;;;;;;;4.43;2.65;;;17.40;99.90;;;;;;5094033;28;20196;-75
2022/06/09 08:37:25;;;;;;;5.63;2.97;;;17.50;99.90;;;;;;5093936;28;20254;-75
2022/06/09 08:39:52;;;;;;;5.63;2.90;;;18.10;99.90;;;;;;5093712;28;20197;-77
2022/06/09 08:42:32;;;;;;;5.47;2.70;;;18.70;99.90;;;;;;5093580;28;20218;-76
2022/06/09 08:45:04;;;;;;;4.15;2.65;;;19.00;99.90;;;;;;5093917;28;20200;-75
2022/06/09 08:47:43;;;;;;;3.60;2.67;;;18.10;99.90;;;;;;5093598;28;20269;-76
2022/06/09 08:50:18;;;;;;;4.13;2.40;;;17.60;99.90;;;;;;5093643;28;20207;-76
2022/06/09 08:52:49;;;;;;;3.28;2.40;;;17.70;99.90;;;;;;5093468;28;20237;-76
2022/06/09 08:55:24;;;;;;;5.60;2.92;;;18.20;99.90;;;;;;5093771;28;20225;-76
2022/06/09 08:57:54;;;;;;;4.05;2.40;;;18.00;99.90;;;;;;5093559;28;20196;-76
2022/06/09 09:00:25;;;;;;;3.45;2.58;;;17.90;99.90;;;;;;5093336;28;20227;-76
2022/06/09 09:02:59;;;;;;;3.40;2.55;;;17.80;99.90;;;;;;5093528;28;20602;-76
2022/06/09 09:05:33;;;;;;;5.78;2.90;;;18.00;99.90;;;;;;5093279;28;20690;-77
2022/06/09 09:08:04;;;;;;;7.07;3.22;;;17.80;99.90;;;;;;5093530;28;20234;-76
2022/06/09 09:10:40;;;;;;;6.25;2.53;;;17.80;99.90;;;;;;5093404;28;20601;-77
2022/06/09 09:13:19;;;;;;;5.25;3.00;;;17.40;99.90;;;;;;5093210;28;20195;-76
2022/06/09 09:15:50;;;;;;;6.72;3.60;;;17.40;99.90;;;;;;5093122;28;20246;-76
2022/06/09 09:18:29;;;;;;;4.60;3.25;;;17.00;99.90;;;;;;5093437;28;20196;-76
2022/06/09 09:21:06;;;;;;;4.53;2.65;;;17.50;99.90;;;;;;5093162;28;20578;-76
2022/06/09 09:23:39;;;;;;;3.67;2.25;;;18.50;99.90;;;;;;5093143;28;20195;-76
2022/06/09 09:26:15;;;;;;;2.63;2.05;;;18.50;99.90;;;;;;5093121;28;20196;-76
2022/06/09 09:28:48;;;;;;;2.97;2.30;;;18.90;99.90;;;;;;5093294;28;20286;-76
2022/06/09 09:31:24;;;;;;;5.00;2.67;;;19.00;99.90;;;;;;5092992;28;20200;-76
2022/06/09 09:33:52;;;;;;;5.80;2.33;;;19.50;99.90;;;;;;5092669;28;20192;-76
2022/06/09 09:36:23;;;;;;;4.90;2.00;;;19.40;99.90;;;;;;5092986;28;20200;-77
2022/06/09 09:38:58;;;;;;;4.90;2.10;;;18.90;99.90;;;;;;5092719;28;20200;-77
2022/06/09 09:41:28;;;;;;;8.30;2.10;;;18.60;99.90;;;;;;5092667;28;20270;-76
2022/06/09 09:43:56;;;;;;;2.03;1.85;;;18.90;99.90;;;;;;5092787;28;20192;-76
2022/06/09 09:46:28;;;;;;;4.72;2.08;;;19.20;99.90;;;;;;5092889;28;20196;-77
2022/06/09 09:48:58;;;;;;;3.97;2.10;;;18.70;99.90;;;;;;5092706;28;20691;-77
2022/06/09 09:51:33;;;;;;;3.33;2.28;;;18.40;99.90;;;;;;5093161;28;20333;-76
2022/06/09 09:54:10;;;;;;;2.58;2.38;;;17.90;99.90;;;;;;5092892;28;20200;-76
2022/06/09 09:56:38;;;;;;;3.38;2.63;;;17.60;99.90;;;;;;5094362;28;20294;-76
2022/06/09 09:59:20;;;;;;;6.22;2.97;;;17.50;99.90;;;;;;5094657;28;20655;-75
2022/06/09 10:10:14;;;;;;;3.85;3.50;;;17.00;99.90;;;;;;5093176;28;20281;-76
2022/06/09 10:12:42;;;;;;;4.55;2.97;;;17.30;99.90;;;;;;5093064;28;20249;-76
2022/06/09 10:15:16;;;;;;;3.53;3.20;;;17.40;99.90;;;;;;5092844;28;20192;-76
2022/06/09 10:17:50;;;;;;;5.18;3.22;;;17.60;99.90;;;;;;5092666;28;20207;-76
2022/06/09 10:20:29;;;;;;;3.10;2.80;;;17.70;99.90;;;;;;5092643;28;20207;-76
2022/06/09 10:23:01;;;;;;;3.05;2.60;;;18.50;99.90;;;;;;5092812;28;20200;-76
2022/06/09 10:25:34;;;;;;;2.67;2.47;;;19.20;99.90;;;;;;5092689;28;20224;-76
2022/06/09 10:28:07;;;;;;;3.60;2.67;;;19.10;99.90;;;;;;5092654;28;20203;-76
2022/06/09 10:30:39;;;;;;;3.15;2.60;;;19.70;99.90;;;;;;5092566;28;20204;-76
2022/06/09 10:33:15;;;;;;;2.80;2.17;;;19.60;99.90;;;;;;5092761;28;20204;-76
2022/06/09 10:35:50;;;;;;;4.70;2.55;;;20.00;99.90;;;;;;5092567;28;20204;-76
2022/06/09 10:38:25;;;;;;;5.30;1.88;;;19.80;99.90;;;;;;5092403;28;20203;-76
2022/06/09 10:40:56;;;;;;;2.83;1.75;;;19.40;99.90;;;;;;5092187;28;20220;-76
2022/06/09 10:43:28;;;;;;;2.85;1.80;;;19.30;99.90;;;;;;5092271;28;20295;-77
2022/06/09 10:46:04;;;;;;;2.55;2.17;;;19.60;99.90;;;;;;5092649;28;20192;-77
2022/06/09 10:57:10;;;;;;;3.55;3.00;;;17.80;99.90;;;;;;5096420;28;20674;-75
2022/06/09 10:59:45;;;;;;;3.45;2.55;;;17.80;99.90;;;;;;5096722;28;20203;-75
2022/06/09 11:02:16;;;;;;;3.45;2.72;;;17.70;99.90;;;;;;5096140;28;20223;-76
2022/06/09 11:04:44;;;;;;;5.50;2.65;;;17.90;99.90;;;;;;5095859;28;20232;-76
2022/06/09 11:07:27;;;;;;;4.28;2.80;;;17.90;99.90;;;;;;5095679;28;20197;-75
2022/06/09 11:10:08;;;;;;;4.93;2.85;;;17.60;99.90;;;;;;5095743;28;20196;-79
2022/06/09 11:12:46;;;;;;;4.05;2.88;;;17.90;99.90;;;;;;5095822;28;20273;-77
2022/06/09 11:15:26;;;;;;;4.95;3.20;;;17.80;99.90;;;;;;5095705;28;20266;-76
2022/06/09 11:18:09;;;;;;;4.70;2.85;;;18.00;99.90;;;;;;5095664;28;20191;-76
2022/06/09 11:20:53;;;;;;;5.07;2.92;;;18.00;99.90;;;;;;5095386;28;20208;-78
2022/06/09 11:23:37;;;;;;;4.32;3.00;;;17.50;99.90;;;;;;5095648;28;20195;-77
2022/06/09 11:26:12;;;;;;;4.57;3.67;;;16.80;99.90;;;;;;5095192;28;20606;-79
2022/06/09 11:28:49;;;;;;;7.60;4.47;;;16.60;99.90;;;;;;5095548;28;20303;-80
2022/06/09 11:31:53;;;;;;;6.45;4.30;;;16.30;99.90;;;;;;5095572;28;20272;-80
2022/06/09 11:34:39;;;;;;;6.32;4.32;;;16.10;99.90;;;;;;5082573;28;20203;-78
2022/06/09 11:37:18;;;;;;;6.87;4.47;;;15.90;99.90;;;;;;5095230;28;20258;-77
2022/06/09 11:39:57;;;;;;;7.87;4.40;;;16.00;99.90;;;;;;5095156;28;20656;-77
2022/06/09 11:42:38;;;;;;;6.03;4.10;;;16.50;99.90;;;;;;5095223;28;20245;-77
2022/06/09 11:45:23;;;;;;;5.40;3.47;;;17.00;99.90;;;;;;5095114;28;20212;-77
2022/06/09 11:47:52;;;;;;;5.50;3.50;;;17.20;99.90;;;;;;5095066;28;20232;-77
2022/06/09 11:50:24;;;;;;;7.55;3.30;;;17.60;99.90;;;;;;5095071;28;20724;-77
2022/06/09 11:52:51;;;;;;;5.57;3.80;;;18.00;99.90;;;;;;5095100;28;20246;-79
2022/06/09 11:58:43;;;;;;;9.02;3.33;;;18.60;99.90;;;;;;5094802;28;20215;-77
2022/06/09 12:01:26;;;;;;;3.58;2.80;;;19.00;99.90;;;;;;5090841;28;20259;-77
2022/06/09 12:04:16;;;;;;;4.32;2.80;;;19.70;99.90;;;;;;5094869;28;20245;-78
2022/06/09 12:07:09;;;;;;;4.10;2.70;;;20.00;99.90;;;;;;5094639;28;20204;-78
2022/06/09 12:09:47;;;;;;;4.78;2.90;;;20.30;99.90;;;;;;5094774;28;20597;-78
2022/06/09 12:12:35;;;;;;;8.25;2.65;;;20.50;99.90;;;;;;5094703;28;20196;-78
2022/06/09 12:15:23;;;;;;;3.28;2.53;;;21.30;99.90;;;;;;5095763;28;20199;-81
2022/06/09 12:18:07;;;;;;;4.85;2.50;;;22.20;99.90;;;;;;5092962;28;20208;-84
2022/06/09 12:20:38;;;;;;;4.70;2.80;;;21.20;99.90;;;;;;5096439;28;20680;-84
2022/06/09 12:23:23;;;;;;;6.07;2.72;;;20.20;99.90;;;;;;5094808;28;20220;-78
2022/06/09 12:26:43;;;;;;;2.80;2.50;;;19.00;99.90;;;;;;5094498;28;20251;-78
2022/06/09 12:29:39;;;;;;;5.45;2.75;;;18.40;99.90;;;;;;5094651;28;20208;-79
2022/06/09 12:32:37;;;;;;;4.57;2.60;;;18.30;99.90;;;;;;5094607;28;20196;-78
2022/06/09 12:35:15;;;;;;;6.05;2.80;;;18.20;99.90;;;;;;5094040;28;20222;-77
2022/06/09 12:37:51;;;;;;;10.60;3.80;;;18.50;99.90;;;;;;5093617;28;20200;-78
2022/06/09 12:40:22;;;;;;;12.30;9.40;;;18.60;99.90;;;;;;5094311;28;20299;-79
2022/06/09 12:42:51;;;;;;;14.25;8.88;;;18.50;99.90;;;;;;5094036;28;20498;-79
2022/06/09 12:45:22;;;;;;;10.10;7.35;;;18.40;99.90;;;;;;5094068;28;20273;-78
2022/06/09 12:47:54;;;;;;;10.55;9.02;;;18.40;99.90;;;;;;5093863;28;20281;-78
2022/06/09 12:50:32;;;;;;;10.35;8.27;;;19.40;99.90;;;;;;5093996;28;20607;-79
2022/06/09 12:53:00;;;;;;;6.93;5.45;;;20.70;99.90;;;;;;5094028;28;20230;-79
2022/06/09 12:55:29;;;;;;;5.97;2.70;;;20.80;99.90;;;;;;5093960;28;20196;-78
2022/06/09 12:58:04;;;;;;;3.95;2.30;;;19.80;99.90;;;;;;5093550;28;20556;-78
2022/06/09 13:00:37;;;;;;;4.90;2.30;;;19.80;99.90;;;;;;5093322;28;20750;-77
2022/06/09 13:03:15;;;;;;;3.45;2.60;;;19.80;99.90;;;;;;5093463;28;20250;-79
2022/06/09 13:05:42;;;;;;;4.55;2.53;;;19.00;99.90;;;;;;5093606;28;20717;-79
2022/06/09 13:08:16;;;;;;;5.72;2.80;;;18.70;99.90;;;;;;5088547;28;20567;-80
2022/06/09 13:10:46;;;;;;;8.00;2.80;;;18.40;99.90;;;;;;5088771;28;20274;-80
2022/06/09 13:13:18;;;;;;;8.30;3.08;;;18.40;99.90;;;;;;5092560;28;20265;-79
2022/06/09 13:15:54;;;;;;;5.72;2.95;;;18.10;99.90;;;;;;5093072;28;20196;-78
2022/06/09 13:18:28;;;;;;;3.20;2.72;;;18.00;99.90;;;;;;5093122;28;20249;-78
2022/06/09 13:21:07;;;;;;;6.47;2.83;;;17.90;99.90;;;;;;5092973;28;20196;-78
2022/06/09 13:23:34;;;;;;;4.80;3.42;;;17.80;99.90;;;;;;5092850;28;20655;-78